Huvudsida
METAR-TAF:

METAR-TAF

Flygplatser :

Kairos internationella flygplats

Kairo, Egypten

latitud: 30-08N, longitud: 031-24E, höjd: 64 m

Aktuellt väderrapport

Denna rapport gjordes för 15 minuter sedan, klockan 12:30 UTC
Vind 16 kt från nord/nordost
Temperatur 31°C
Fuktighet 13%
Tryck 1018 hPa
Sikt 10 km eller mer
Inga moln under 1 500 m eller inga cumulonimbus

METAR: HECA 251230Z 03016KT CAVOK 31/M01 Q1018 NOSIG

Tid: 14:45 (12:45 UTC)

Väderprognos

Denna rapport gjordes för 1 timme och 45 minuter sedan, klockan 11:00 UTC
Prognos gäller från 25 kl. 12 UTC till 26 kl. 18 UTC
Vind 13 kt från nordost i byarna ända upp till 23 kt
Sikt 10 km eller mer
Inga moln under 1 500 m eller inga cumulonimbus
Temporärt
från 25 kl. 12 UTC till 25 kl. 18 UTC
Sikt: 4000 m
sand

TAF: HECA 251100Z 2512/2618 05013G23KT CAVOK TEMPO 2512/2518 4000 SA NSC

Aktuella väderrapporter och prognoser från 4000 flygplatser (METAR- och TAF-rapporter).

De tillgängliga stationerna syns som gula och röda prickar på kartan.

För musen över prickarna för att se namnen på stationerna.

Klicka sedan för att få väderrapporter och prognoser.

För att ändra kartan: Klicka på de gröna knapparna med ett svart kors på för att zooma in; den gröna knappen med ett streck på för att zooma ut; eller på de gröna pilarna för angränsande kartor.


METAR-TAF: